Time;durP1;ratioP1;P1;durP2;ratioP2;P2;SDS_P1;SDS_P2;PMS_P1;PMS_P2;Temp;Humidity;BMP_temperature;BMP_pressure;BME280_temperature;BME280_humidity;BME280_pressure;Samples;Min_cycle;Max_cycle;Signal;HPM_P1;HPM_P2
2023/08/02 00:02:13;;;;;;;2.35;1.80;;;18.20;99.90;;;;;;4992998;28;20110;-68
2023/08/02 00:04:41;;;;;;;2.72;1.48;;;18.20;99.90;;;;;;4992976;28;20467;-68
2023/08/02 00:07:06;;;;;;;2.95;1.70;;;18.10;99.90;;;;;;4992114;28;20518;-68
2023/08/02 00:09:33;;;;;;;2.50;2.10;;;18.10;99.90;;;;;;4992971;28;20030;-68
2023/08/02 00:11:58;;;;;;;5.18;2.08;;;18.10;99.90;;;;;;4992220;28;20030;-68
2023/08/02 00:14:24;;;;;;;2.70;1.58;;;18.10;99.90;;;;;;4975522;28;20057;-69
2023/08/02 00:16:50;;;;;;;2.00;1.73;;;18.10;99.90;;;;;;4993081;28;20106;-68
2023/08/02 00:19:16;;;;;;;2.33;1.65;;;18.10;99.90;;;;;;4979180;28;20035;-68
2023/08/02 00:21:42;;;;;;;1.58;1.30;;;18.00;99.90;;;;;;4979149;28;20484;-68
2023/08/02 00:24:08;;;;;;;2.05;1.50;;;18.00;99.90;;;;;;4996185;28;20121;-69
2023/08/02 00:26:34;;;;;;;6.68;1.70;;;18.00;99.90;;;;;;4996589;28;20043;-68
2023/08/02 00:28:59;;;;;;;2.58;1.83;;;18.00;99.90;;;;;;4978723;28;20033;-68
2023/08/02 00:31:25;;;;;;;1.70;1.35;;;18.00;99.90;;;;;;4996380;28;20033;-68
2023/08/02 00:33:51;;;;;;;3.17;1.67;;;18.00;99.90;;;;;;4996288;28;20034;-69
2023/08/02 00:36:16;;;;;;;1.95;1.50;;;18.00;99.90;;;;;;5013150;28;20100;-68
2023/08/02 00:38:42;;;;;;;2.92;1.48;;;17.90;99.90;;;;;;5015858;28;20029;-68
2023/08/02 00:41:08;;;;;;;2.60;1.65;;;17.90;99.90;;;;;;5015342;28;20028;-70
2023/08/02 00:43:45;;;;;;;3.22;1.63;;;17.90;99.90;;;;;;5015850;28;20088;-70
2023/08/02 00:46:15;;;;;;;2.80;2.20;;;17.90;99.90;;;;;;5015699;28;20033;-70
2023/08/02 00:48:42;;;;;;;2.58;1.80;;;17.90;99.90;;;;;;5015987;28;20111;-69
2023/08/02 00:51:12;;;;;;;2.38;1.55;;;17.90;99.90;;;;;;5015230;28;20463;-69
2023/08/02 00:53:38;;;;;;;2.42;1.60;;;17.90;99.90;;;;;;5015613;28;20041;-69
2023/08/02 00:56:04;;;;;;;3.30;2.10;;;17.80;99.90;;;;;;5015201;28;20370;-69
2023/08/02 00:58:30;;;;;;;2.53;1.60;;;17.80;99.90;;;;;;5015844;28;20040;-69
2023/08/02 01:01:06;;;;;;;2.38;1.60;;;17.80;99.90;;;;;;5015161;28;20026;-69
2023/08/02 01:03:37;;;;;;;3.63;1.30;;;17.80;99.90;;;;;;5015590;28;20057;-69
2023/08/02 01:06:27;;;;;;;2.00;1.50;;;17.80;99.90;;;;;;5014973;28;20050;-70
2023/08/02 01:09:13;;;;;;;;;;;17.80;99.90;;;;;;5015100;28;20502;-69
2023/08/02 01:12:10;;;;;;;3.50;1.70;;;17.80;99.90;;;;;;5014980;28;19913;-69
2023/08/02 01:14:40;;;;;;;4.05;1.70;;;17.80;99.90;;;;;;5013436;28;20038;-69
2023/08/02 01:17:08;;;;;;;3.00;1.13;;;17.80;99.90;;;;;;5014828;28;20026;-69
2023/08/02 01:19:33;;;;;;;2.03;1.33;;;17.80;99.90;;;;;;5015309;28;20108;-70
2023/08/02 01:21:59;;;;;;;2.35;1.60;;;17.80;99.90;;;;;;5011341;28;20114;-70
2023/08/02 01:24:31;;;;;;;3.90;1.70;;;17.80;99.90;;;;;;5014922;28;20081;-68
2023/08/02 01:26:57;;;;;;;1.73;1.30;;;17.80;99.90;;;;;;5014723;28;20018;-70
2023/08/02 01:29:27;;;;;;;3.10;1.45;;;17.80;99.90;;;;;;5013868;28;20061;-69
2023/08/02 01:31:56;;;;;;;3.22;1.55;;;17.80;99.90;;;;;;5014478;28;20112;-70
2023/08/02 01:34:23;;;;;;;2.00;1.40;;;17.80;99.90;;;;;;5014560;28;20026;-69
2023/08/02 01:36:49;;;;;;;4.78;1.70;;;17.80;99.90;;;;;;5014789;28;20042;-69
2023/08/02 01:39:16;;;;;;;1.77;1.20;;;17.80;99.90;;;;;;5014086;28;20029;-69
2023/08/02 01:41:42;;;;;;;1.98;1.35;;;17.80;99.90;;;;;;5014433;28;20462;-69
2023/08/02 01:44:08;;;;;;;4.45;1.60;;;17.80;99.90;;;;;;5014279;28;20037;-69
2023/08/02 01:46:33;;;;;;;1.75;1.35;;;17.80;99.90;;;;;;5006588;28;20023;-69
2023/08/02 01:48:59;;;;;;;2.60;1.20;;;17.80;99.90;;;;;;4994655;28;20031;-70
2023/08/02 01:51:24;;;;;;;2.47;1.27;;;17.80;99.90;;;;;;4994832;28;20462;-69
2023/08/02 01:53:50;;;;;;;1.67;1.15;;;17.80;99.90;;;;;;4995227;28;20161;-69
2023/08/02 01:56:16;;;;;;;4.43;1.40;;;17.80;99.90;;;;;;4994490;28;20399;-68
2023/08/02 01:58:42;;;;;;;2.00;1.52;;;17.80;99.90;;;;;;4994615;28;20459;-68
2023/08/02 02:01:07;;;;;;;2.30;1.50;;;17.80;99.90;;;;;;4994686;28;20109;-69
2023/08/02 02:03:33;;;;;;;1.80;1.30;;;17.80;99.90;;;;;;4995117;28;20153;-69
2023/08/02 02:05:59;;;;;;;2.33;1.30;;;17.80;99.90;;;;;;4993992;28;20430;-69
2023/08/02 02:08:25;;;;;;;3.38;1.45;;;17.80;99.90;;;;;;4994601;28;20038;-68
2023/08/02 02:10:52;;;;;;;1.83;1.30;;;17.80;99.90;;;;;;4977555;28;20510;-68
2023/08/02 02:13:18;;;;;;;1.63;1.20;;;17.80;99.90;;;;;;4994032;28;20104;-68
2023/08/02 02:15:44;;;;;;;1.45;1.30;;;17.80;99.90;;;;;;4994269;28;20538;-68
2023/08/02 02:18:10;;;;;;;2.97;1.25;;;17.80;99.90;;;;;;4994106;28;20117;-69
2023/08/02 02:20:35;;;;;;;1.25;1.13;;;17.80;99.90;;;;;;4994424;28;20027;-68
2023/08/02 02:23:01;;;;;;;1.88;1.17;;;17.70;99.90;;;;;;4993729;28;20030;-69
2023/08/02 02:25:27;;;;;;;1.55;1.30;;;17.70;99.90;;;;;;4994362;28;20035;-69
2023/08/02 02:27:52;;;;;;;2.97;1.20;;;17.70;99.90;;;;;;4994551;28;20030;-69
2023/08/02 02:30:18;;;;;;;2.67;1.00;;;17.70;99.90;;;;;;4994194;28;20026;-69
2023/08/02 02:32:44;;;;;;;1.58;1.20;;;17.70;99.90;;;;;;4994136;28;20100;-69
2023/08/02 02:35:14;;;;;;;1.50;1.10;;;17.70;99.90;;;;;;4993820;28;20057;-69
2023/08/02 02:37:40;;;;;;;2.80;1.50;;;17.60;99.90;;;;;;4994324;28;20041;-69
2023/08/02 02:40:07;;;;;;;2.65;1.20;;;17.60;99.90;;;;;;4975855;28;20628;-69
2023/08/02 02:42:32;;;;;;;1.05;0.95;;;17.60;99.90;;;;;;4994019;28;20027;-69
2023/08/02 02:44:58;;;;;;;1.52;1.23;;;17.60;99.90;;;;;;4997473;28;20026;-70
2023/08/02 02:47:23;;;;;;;2.92;1.10;;;17.60;99.90;;;;;;5013483;28;20406;-68
2023/08/02 02:49:49;;;;;;;2.65;1.10;;;17.60;99.90;;;;;;5013450;28;20486;-68
2023/08/02 02:52:15;;;;;;;1.40;1.00;;;17.60;99.90;;;;;;5012979;28;20065;-69
2023/08/02 02:54:40;;;;;;;2.80;0.98;;;17.60;99.90;;;;;;5013180;28;20085;-68
2023/08/02 02:57:06;;;;;;;1.80;1.00;;;17.60;99.90;;;;;;5012996;28;20041;-68
2023/08/02 02:59:34;;;;;;;1.30;1.13;;;17.60;99.90;;;;;;5013348;28;20030;-68
2023/08/02 03:02:00;;;;;;;3.03;1.08;;;17.50;99.90;;;;;;5011700;28;20030;-69
2023/08/02 03:04:26;;;;;;;1.75;1.40;;;17.60;99.90;;;;;;5012969;28;20438;-68
2023/08/02 03:06:52;;;;;;;7.55;1.30;;;17.50;99.90;;;;;;5012866;28;20136;-69
2023/08/02 03:09:18;;;;;;;1.42;1.05;;;17.60;99.90;;;;;;5012882;28;20528;-68
2023/08/02 03:11:44;;;;;;;2.92;1.10;;;17.60;99.90;;;;;;4995839;28;20046;-68
2023/08/02 03:14:10;;;;;;;2.03;1.17;;;17.60;99.90;;;;;;5012784;28;20088;-68
2023/08/02 03:16:35;;;;;;;1.65;1.30;;;17.60;99.90;;;;;;5013091;28;20430;-68
2023/08/02 03:19:01;;;;;;;3.35;1.05;;;17.60;99.90;;;;;;5012744;28;20052;-71
2023/08/02 03:21:26;;;;;;;2.58;1.35;;;17.60;99.90;;;;;;5013001;28;20038;-69
2023/08/02 03:23:52;;;;;;;1.67;1.23;;;17.60;99.90;;;;;;5013090;28;20026;-69
2023/08/02 03:26:18;;;;;;;2.15;1.27;;;17.50;99.90;;;;;;5012613;28;20109;-69
2023/08/02 03:28:43;;;;;;;1.25;1.13;;;17.50;99.90;;;;;;5010209;28;20413;-69
2023/08/02 03:31:09;;;;;;;3.60;1.02;;;17.50;99.90;;;;;;5012795;28;20022;-70
2023/08/02 03:33:35;;;;;;;1.73;1.30;;;17.60;99.90;;;;;;5013261;28;20101;-69
2023/08/02 03:36:00;;;;;;;2.78;1.38;;;17.60;99.90;;;;;;5012964;28;20108;-70
2023/08/02 03:38:26;;;;;;;2.78;1.20;;;17.50;99.90;;;;;;5013005;28;20026;-70
2023/08/02 03:40:53;;;;;;;1.42;1.23;;;17.60;99.90;;;;;;5012621;28;20074;-70
2023/08/02 03:43:19;;;;;;;5.25;1.60;;;17.50;99.90;;;;;;5012489;28;20517;-69
2023/08/02 03:45:46;;;;;;;2.40;1.30;;;17.50;99.90;;;;;;5012812;28;20030;-69
2023/08/02 03:48:11;;;;;;;2.17;0.90;;;17.50;99.90;;;;;;5012129;28;20026;-70
2023/08/02 03:50:37;;;;;;;3.47;1.25;;;17.50;99.90;;;;;;5012814;28;20364;-70
2023/08/02 03:53:03;;;;;;;1.98;1.20;;;17.50;99.90;;;;;;5014980;28;20124;-71
2023/08/02 03:55:28;;;;;;;1.77;1.40;;;17.50;99.90;;;;;;5000538;28;20436;-70
2023/08/02 03:57:54;;;;;;;1.85;1.38;;;17.50;99.90;;;;;;4997112;28;20027;-69
2023/08/02 04:00:19;;;;;;;1.38;1.17;;;17.60;99.90;;;;;;4996637;28;20030;-69
2023/08/02 04:02:45;;;;;;;3.38;1.63;;;17.50;99.90;;;;;;4996966;28;20030;-69
2023/08/02 04:05:11;;;;;;;2.47;1.48;;;17.50;99.90;;;;;;4979129;28;20165;-70
2023/08/02 04:07:37;;;;;;;2.67;1.30;;;17.50;99.90;;;;;;4997536;28;20438;-69
2023/08/02 04:10:03;;;;;;;1.55;1.40;;;17.50;99.90;;;;;;4996700;28;20117;-69
2023/08/02 04:12:29;;;;;;;1.13;1.00;;;17.50;99.90;;;;;;4997286;28;20057;-70
2023/08/02 04:14:54;;;;;;;1.30;0.98;;;17.50;99.90;;;;;;4998064;28;20026;-70
2023/08/02 04:17:20;;;;;;;1.90;1.20;;;17.50;99.90;;;;;;4997957;28;20027;-69
2023/08/02 04:19:46;;;;;;;1.50;1.20;;;17.60;99.90;;;;;;4997690;28;20478;-70
2023/08/02 04:22:12;;;;;;;2.53;1.42;;;17.60;99.90;;;;;;4996701;28;20034;-70
2023/08/02 04:24:38;;;;;;;2.35;1.10;;;17.60;99.90;;;;;;4997555;28;20108;-69
2023/08/02 04:27:04;;;;;;;1.10;1.00;;;17.60;99.90;;;;;;4997152;28;20081;-69
2023/08/02 04:29:30;;;;;;;1.58;1.40;;;17.70;99.90;;;;;;4996138;28;20034;-69
2023/08/02 04:31:55;;;;;;;4.28;1.42;;;17.70;99.90;;;;;;4996283;28;20039;-69
2023/08/02 04:34:21;;;;;;;2.53;1.40;;;17.90;99.90;;;;;;4995564;28;20062;-70
2023/08/02 04:36:47;;;;;;;1.48;1.10;;;18.00;99.90;;;;;;4996147;28;20463;-69
2023/08/02 04:39:13;;;;;;;3.10;1.13;;;18.10;99.90;;;;;;4995589;28;20085;-70
2023/08/02 04:41:39;;;;;;;1.55;1.13;;;18.20;99.90;;;;;;4996271;28;20062;-70
2023/08/02 04:44:05;;;;;;;5.75;1.70;;;18.30;99.90;;;;;;4995510;28;20050;-70
2023/08/02 04:46:31;;;;;;;3.67;1.42;;;18.40;99.90;;;;;;4994377;28;20034;-69
2023/08/02 04:48:57;;;;;;;1.23;1.13;;;18.60;99.90;;;;;;4995806;28;20514;-69
2023/08/02 04:51:22;;;;;;;1.83;1.40;;;18.70;99.90;;;;;;5002961;28;20102;-69
2023/08/02 04:53:48;;;;;;;1.65;1.30;;;18.80;99.90;;;;;;5005087;28;20108;-69
2023/08/02 04:56:15;;;;;;;2.15;1.10;;;19.00;99.90;;;;;;4995199;28;20106;-70
2023/08/02 04:58:41;;;;;;;2.30;1.30;;;19.10;99.90;;;;;;4995628;28;20038;-70
2023/08/02 05:01:07;;;;;;;1.65;1.33;;;19.30;99.90;;;;;;4995851;28;20386;-69
2023/08/02 05:03:33;;;;;;;1.52;1.15;;;19.40;99.90;;;;;;4977521;28;20022;-69
2023/08/02 05:06:04;;;;;;;2.55;1.60;;;19.60;99.90;;;;;;4995138;28;20046;-70
2023/08/02 05:08:32;;;;;;;2.85;1.40;;;19.70;99.90;;;;;;4995230;28;20053;-70
2023/08/02 05:10:58;;;;;;;3.15;1.50;;;19.80;99.90;;;;;;4995663;28;20030;-69
2023/08/02 05:13:24;;;;;;;1.75;1.40;;;20.00;99.90;;;;;;4977561;28;20042;-70
2023/08/02 05:15:51;;;;;;;3.40;1.42;;;20.10;99.90;;;;;;4995658;28;20117;-69
2023/08/02 05:18:17;;;;;;;2.70;1.48;;;20.20;99.40;;;;;;4995008;28;20371;-70
2023/08/02 05:20:42;;;;;;;1.30;1.15;;;20.40;99.00;;;;;;4995567;28;20037;-70
2023/08/02 05:23:08;;;;;;;4.05;1.45;;;20.50;98.50;;;;;;4995485;28;20026;-70
2023/08/02 05:25:35;;;;;;;2.13;1.40;;;20.70;97.90;;;;;;4997589;28;20033;-69
2023/08/02 05:28:01;;;;;;;1.30;1.20;;;20.90;97.10;;;;;;4995429;28;20076;-69
2023/08/02 05:30:28;;;;;;;1.20;1.02;;;21.10;96.30;;;;;;4995053;28;20038;-70
2023/08/02 05:32:54;;;;;;;1.58;1.40;;;21.40;95.80;;;;;;4977462;28;20042;-70
2023/08/02 05:35:20;;;;;;;1.48;1.00;;;22.10;93.70;;;;;;4994931;28;20459;-70
2023/08/02 05:37:46;;;;;;;2.25;1.50;;;23.00;91.40;;;;;;4995004;28;20077;-69
2023/08/02 05:40:11;;;;;;;3.40;1.27;;;23.90;88.30;;;;;;4995627;28;20085;-68
2023/08/02 05:42:37;;;;;;;2.10;1.50;;;24.80;82.70;;;;;;4995043;28;20483;-70
2023/08/02 05:45:03;;;;;;;3.33;1.50;;;25.60;79.00;;;;;;4994949;28;20030;-69
2023/08/02 05:47:30;;;;;;;3.95;1.70;;;26.30;74.50;;;;;;4994740;28;20030;-70
2023/08/02 05:49:56;;;;;;;3.17;1.90;;;26.70;70.40;;;;;;4994755;28;20026;-70
2023/08/02 05:52:22;;;;;;;1.73;1.48;;;27.20;68.10;;;;;;4992866;28;20087;-71
2023/08/02 05:54:48;;;;;;;1.95;1.58;;;27.40;65.50;;;;;;4994838;28;20079;-70
2023/08/02 05:57:13;;;;;;;4.28;1.50;;;27.60;64.60;;;;;;4994537;28;20037;-75
2023/08/02 05:59:39;;;;;;;1.80;1.50;;;27.70;63.00;;;;;;4994779;28;20031;-70
2023/08/02 06:02:06;;;;;;;2.00;1.30;;;27.90;63.40;;;;;;4977330;28;20106;-70
2023/08/02 06:04:35;;;;;;;2.35;1.27;;;28.30;61.20;;;;;;4991634;28;20180;-70
2023/08/02 06:07:01;;;;;;;2.55;1.40;;;28.30;60.50;;;;;;4994423;28;20132;-70
2023/08/02 06:09:27;;;;;;;1.40;1.00;;;28.20;60.50;;;;;;4994228;28;20097;-70
2023/08/02 06:11:52;;;;;;;1.20;1.10;;;28.20;60.00;;;;;;4993901;28;20054;-70
2023/08/02 06:14:18;;;;;;;1.40;1.20;;;28.50;58.70;;;;;;4990414;28;20108;-70
2023/08/02 06:16:44;;;;;;;2.42;1.35;;;28.60;58.30;;;;;;4993940;28;20193;-70
2023/08/02 06:19:09;;;;;;;4.20;1.38;;;28.60;58.10;;;;;;4994154;28;20117;-70
2023/08/02 06:21:35;;;;;;;4.32;1.58;;;29.00;58.10;;;;;;4976636;28;20038;-70
2023/08/02 06:24:01;;;;;;;2.75;1.40;;;29.50;56.40;;;;;;4994495;28;20045;-70
2023/08/02 06:26:28;;;;;;;1.35;1.10;;;29.70;55.40;;;;;;4993809;28;20026;-70
2023/08/02 06:28:54;;;;;;;3.78;1.27;;;29.70;54.40;;;;;;4994216;28;20034;-70
2023/08/02 06:31:21;;;;;;;1.52;1.23;;;29.90;55.00;;;;;;4993850;28;20030;-70
2023/08/02 06:33:46;;;;;;;2.10;1.00;;;30.10;54.70;;;;;;4994069;28;20033;-70
2023/08/02 06:36:12;;;;;;;1.70;1.10;;;30.50;53.20;;;;;;4992871;28;20031;-70
2023/08/02 06:38:39;;;;;;;3.33;1.10;;;30.60;53.00;;;;;;4993332;28;20053;-71
2023/08/02 06:41:05;;;;;;;4.93;1.30;;;31.10;53.30;;;;;;4993569;28;20093;-70
2023/08/02 06:43:30;;;;;;;2.30;1.30;;;31.50;51.60;;;;;;4992900;28;20033;-70
2023/08/02 06:45:59;;;;;;;1.88;1.23;;;31.80;50.50;;;;;;4976197;28;20026;-70
2023/08/02 06:48:25;;;;;;;2.50;1.33;;;32.00;49.40;;;;;;4992847;28;20084;-70
2023/08/02 06:50:52;;;;;;;2.80;1.20;;;32.10;49.90;;;;;;5001157;28;20035;-70
2023/08/02 06:53:18;;;;;;;4.35;1.20;;;32.10;48.20;;;;;;5001992;28;20081;-70
2023/08/02 06:55:44;;;;;;;3.17;1.13;;;32.00;48.50;;;;;;4986250;28;20609;-70
2023/08/02 06:58:10;;;;;;;2.00;0.90;;;31.90;48.40;;;;;;5003431;28;20018;-69
2023/08/02 07:00:36;;;;;;;1.27;1.00;;;32.20;48.20;;;;;;5004354;28;20378;-69
2023/08/02 07:03:05;;;;;;;5.10;1.17;;;32.50;47.30;;;;;;5001894;28;20466;-69
2023/08/02 07:05:31;;;;;;;1.88;1.45;;;32.80;47.70;;;;;;5003085;28;20037;-69
2023/08/02 07:07:58;;;;;;;1.35;1.00;;;33.00;46.50;;;;;;5002249;28;20046;-70
2023/08/02 07:10:25;;;;;;;2.33;1.08;;;32.80;46.20;;;;;;5004037;28;20030;-70
2023/08/02 07:12:51;;;;;;;1.30;1.00;;;32.90;45.70;;;;;;5003964;28;20090;-74
2023/08/02 07:15:17;;;;;;;2.05;1.38;;;32.70;45.60;;;;;;5000869;28;20161;-72
2023/08/02 07:17:44;;;;;;;1.45;1.00;;;33.00;46.30;;;;;;4992822;28;20034;-72
2023/08/02 07:20:10;;;;;;;1.42;1.25;;;33.40;45.50;;;;;;4995720;28;20026;-72
2023/08/02 07:22:37;;;;;;;1.95;1.20;;;34.20;44.80;;;;;;4996658;28;20362;-72
2023/08/02 07:25:02;;;;;;;2.72;1.10;;;34.70;44.20;;;;;;5002585;28;20022;-72
2023/08/02 07:27:28;;;;;;;5.18;1.10;;;34.80;43.60;;;;;;5001786;28;20045;-72
2023/08/02 07:29:56;;;;;;;5.60;1.30;;;34.90;42.70;;;;;;4997876;28;20030;-72
2023/08/02 07:32:22;;;;;;;1.98;1.30;;;35.00;44.20;;;;;;4993760;28;20038;-71
2023/08/02 07:34:47;;;;;;;2.80;1.35;;;35.30;42.50;;;;;;4992878;28;20459;-71
2023/08/02 07:37:13;;;;;;;1.80;1.25;;;34.90;42.80;;;;;;4992996;28;20031;-72
2023/08/02 07:39:40;;;;;;;4.90;1.77;;;34.60;44.30;;;;;;4991932;28;20026;-72
2023/08/02 07:42:07;;;;;;;0.90;0.90;;;34.90;43.40;;;;;;4993142;28;20173;-71
2023/08/02 07:44:33;;;;;;;1.40;1.17;;;34.90;42.50;;;;;;4992865;28;20113;-71
2023/08/02 07:46:58;;;;;;;2.75;1.20;;;34.80;42.60;;;;;;4992557;28;20471;-70
2023/08/02 07:49:24;;;;;;;1.67;0.98;;;34.70;41.50;;;;;;4992135;28;20157;-73
2023/08/02 07:51:50;;;;;;;1.83;1.00;;;34.70;41.10;;;;;;4993250;28;20121;-72
2023/08/02 07:54:15;;;;;;;1.33;0.90;;;34.60;41.70;;;;;;4993295;28;20067;-73
2023/08/02 07:56:41;;;;;;;1.40;1.23;;;34.70;41.60;;;;;;4993298;28;20456;-73
2023/08/02 07:59:07;;;;;;;2.97;1.10;;;34.60;41.10;;;;;;4998397;28;20033;-73
2023/08/02 08:01:32;;;;;;;2.65;1.30;;;34.40;40.90;;;;;;4995064;28;20037;-73
2023/08/02 08:03:58;;;;;;;1.38;1.15;;;34.30;41.40;;;;;;4993633;28;20057;-72
2023/08/02 08:06:25;;;;;;;3.63;1.38;;;33.90;42.20;;;;;;4992913;28;20525;-74
2023/08/02 08:08:51;;;;;;;2.45;1.20;;;33.70;44.30;;;;;;4993489;28;20030;-72
2023/08/02 08:11:16;;;;;;;2.92;1.40;;;33.50;44.10;;;;;;4993075;28;20025;-73
2023/08/02 08:13:42;;;;;;;1.70;1.30;;;33.30;45.00;;;;;;4992440;28;20074;-73
2023/08/02 08:16:08;;;;;;;3.38;1.40;;;33.30;44.20;;;;;;4992703;28;20038;-73
2023/08/02 08:18:34;;;;;;;2.75;1.50;;;33.20;44.70;;;;;;4991577;28;20398;-73
2023/08/02 08:21:01;;;;;;;2.28;1.48;;;33.20;43.50;;;;;;4992498;28;20095;-72
2023/08/02 08:23:27;;;;;;;2.97;1.25;;;33.00;44.20;;;;;;4989684;28;20030;-73
2023/08/02 08:25:53;;;;;;;4.82;1.30;;;33.00;44.10;;;;;;4992410;28;20026;-73
2023/08/02 08:28:19;;;;;;;1.98;1.02;;;32.90;44.20;;;;;;4991937;28;20505;-72
2023/08/02 08:30:45;;;;;;;2.05;1.30;;;33.10;43.90;;;;;;4992110;28;20026;-73
2023/08/02 08:33:11;;;;;;;1.63;1.10;;;33.30;43.90;;;;;;4992305;28;20060;-72
2023/08/02 08:35:36;;;;;;;2.03;1.27;;;33.30;42.60;;;;;;4991933;28;20436;-73
2023/08/02 08:38:03;;;;;;;1.88;1.38;;;33.30;42.70;;;;;;4992882;28;20080;-73
2023/08/02 08:40:29;;;;;;;2.08;1.17;;;33.30;42.80;;;;;;4995143;28;20391;-73
2023/08/02 08:42:56;;;;;;;1.98;1.33;;;33.10;43.50;;;;;;4995891;28;20030;-73
2023/08/02 08:45:23;;;;;;;2.00;1.33;;;33.20;42.80;;;;;;4995714;28;20030;-73
2023/08/02 08:47:50;;;;;;;2.85;1.40;;;33.10;42.40;;;;;;4993329;28;20034;-73
2023/08/02 08:50:17;;;;;;;3.53;1.30;;;33.00;42.00;;;;;;4996107;28;20379;-73
2023/08/02 08:52:46;;;;;;;1.30;1.10;;;32.80;41.70;;;;;;4995758;28;20514;-72
2023/08/02 08:55:16;;;;;;;2.22;1.30;;;32.60;43.50;;;;;;4996099;28;20140;-71
2023/08/02 08:57:43;;;;;;;3.70;1.53;;;32.40;42.50;;;;;;4995666;28;20027;-71
2023/08/02 09:00:10;;;;;;;1.65;1.40;;;32.30;43.90;;;;;;4995930;28;20026;-71
2023/08/02 09:02:41;;;;;;;2.03;1.27;;;32.10;44.10;;;;;;4995671;28;20027;-72
2023/08/02 09:05:07;;;;;;;1.45;1.17;;;32.00;43.30;;;;;;5012575;28;20109;-72
2023/08/02 09:07:33;;;;;;;3.13;1.40;;;31.80;43.80;;;;;;5015116;28;20065;-71
2023/08/02 09:09:58;;;;;;;1.50;1.40;;;31.50;45.00;;;;;;5015313;28;20022;-71
2023/08/02 09:12:25;;;;;;;4.82;1.55;;;31.30;44.50;;;;;;5008464;28;20042;-71
2023/08/02 09:15:05;;;;;;;1.70;1.10;;;31.10;43.40;;;;;;4994730;28;20387;-71
2023/08/02 09:17:46;;;;;;;3.53;1.30;;;30.80;44.20;;;;;;4997610;28;20022;-72
2023/08/02 09:20:12;;;;;;;3.65;1.42;;;30.40;44.90;;;;;;5005703;28;20038;-72
2023/08/02 09:22:38;;;;;;;3.78;1.80;;;30.20;45.40;;;;;;4994962;28;20452;-72
2023/08/02 09:25:11;;;;;;;1.88;1.50;;;30.10;45.80;;;;;;4995007;28;20041;-72
2023/08/02 09:27:37;;;;;;;1.95;1.10;;;29.80;46.50;;;;;;4994520;28;20030;-73
2023/08/02 09:30:03;;;;;;;2.30;1.58;;;29.60;47.00;;;;;;4994996;28;20022;-73
2023/08/02 09:32:29;;;;;;;2.00;1.17;;;29.60;48.00;;;;;;4993827;28;20030;-73
2023/08/02 09:34:58;;;;;;;2.33;1.50;;;29.40;49.40;;;;;;4994618;28;20387;-73
2023/08/02 09:37:30;;;;;;;4.47;1.38;;;29.30;49.00;;;;;;4990567;28;20371;-73
2023/08/02 09:39:55;;;;;;;2.28;1.40;;;29.10;49.50;;;;;;4985494;28;20518;-73
2023/08/02 09:42:23;;;;;;;2.13;1.38;;;29.00;48.80;;;;;;4983475;28;20026;-73
2023/08/02 09:44:53;;;;;;;1.83;1.30;;;28.80;50.10;;;;;;4985488;28;20113;-73
2023/08/02 09:47:19;;;;;;;1.50;1.33;;;28.60;49.10;;;;;;4986329;28;20434;-72
2023/08/02 09:49:44;;;;;;;5.05;1.40;;;28.50;49.30;;;;;;4984903;28;20038;-73
2023/08/02 09:52:10;;;;;;;3.55;1.20;;;28.40;49.10;;;;;;4983779;28;20058;-71
2023/08/02 09:54:36;;;;;;;2.25;1.20;;;28.30;50.00;;;;;;4983315;28;20029;-70
2023/08/02 09:57:02;;;;;;;1.55;1.15;;;28.20;51.00;;;;;;4986270;28;20133;-70
2023/08/02 09:59:31;;;;;;;3.30;1.35;;;28.00;51.60;;;;;;4994489;28;20027;-71
2023/08/02 10:01:59;;;;;;;2.85;1.30;;;27.90;51.70;;;;;;4989707;28;20030;-72
2023/08/02 10:04:26;;;;;;;1.90;1.10;;;27.80;50.50;;;;;;4994262;28;20033;-72
2023/08/02 10:07:07;;;;;;;3.22;1.63;;;27.70;50.30;;;;;;4994085;28;20383;-72
2023/08/02 10:09:34;;;;;;;1.42;1.10;;;27.60;51.10;;;;;;4977219;28;20030;-72
2023/08/02 10:12:07;;;;;;;2.28;1.08;;;27.60;51.80;;;;;;4991908;28;20036;-71
2023/08/02 10:14:33;;;;;;;2.00;1.38;;;27.50;51.40;;;;;;4993605;28;20053;-70
2023/08/02 10:17:03;;;;;;;7.50;1.23;;;27.50;51.50;;;;;;4994201;28;20026;-72
2023/08/02 10:19:30;;;;;;;2.47;1.30;;;27.40;52.10;;;;;;4991936;28;20014;-72
2023/08/02 10:22:00;;;;;;;4.70;1.35;;;27.40;53.90;;;;;;4994106;28;20034;-73
2023/08/02 10:24:27;;;;;;;2.10;1.50;;;27.40;54.80;;;;;;4994215;28;20022;-72
2023/08/02 10:27:03;;;;;;;2.83;1.38;;;27.40;54.60;;;;;;4993240;28;20034;-70
2023/08/02 10:29:32;;;;;;;3.58;1.20;;;27.40;54.50;;;;;;4993428;28;20377;-71
2023/08/02 10:31:57;;;;;;;1.40;1.05;;;27.40;55.40;;;;;;4993242;28;20043;-69
2023/08/02 10:34:35;;;;;;;2.55;1.10;;;27.40;53.00;;;;;;4993538;28;20367;-72
2023/08/02 10:37:01;;;;;;;3.70;1.30;;;27.20;49.40;;;;;;4990074;28;20104;-73
2023/08/02 10:39:45;;;;;;;1.42;1.20;;;27.20;52.30;;;;;;4987625;28;20470;-74
2023/08/02 10:42:12;;;;;;;1.88;1.13;;;27.10;55.90;;;;;;4987104;28;20041;-71
2023/08/02 10:44:55;;;;;;;3.17;1.33;;;27.00;56.90;;;;;;4975194;28;21620;-71
2023/08/02 10:47:28;;;;;;;1.58;1.23;;;26.90;57.70;;;;;;4989444;28;20038;-71
2023/08/02 10:49:54;;;;;;;2.03;1.45;;;26.80;58.00;;;;;;4984648;28;20030;-72
2023/08/02 10:52:32;;;;;;;1.50;1.20;;;26.80;58.50;;;;;;4985655;28;20045;-71
2023/08/02 10:55:18;;;;;;;1.35;1.10;;;26.70;58.90;;;;;;4986269;28;20022;-71
2023/08/02 10:58:05;;;;;;;1.63;1.20;;;26.60;60.30;;;;;;4974334;28;20509;-70
2023/08/02 11:00:34;;;;;;;3.42;1.27;;;26.50;61.50;;;;;;4979205;28;20022;-70
2023/08/02 11:03:00;;;;;;;2.13;1.23;;;26.50;61.60;;;;;;4984679;28;20041;-71
2023/08/02 11:05:59;;;;;;;4.18;1.50;;;26.40;61.80;;;;;;4986045;28;20026;-71
2023/08/02 11:08:24;;;;;;;5.85;1.35;;;26.50;62.00;;;;;;4970684;28;20061;-71
2023/08/02 11:10:52;;;;;;;1.48;1.20;;;26.50;62.00;;;;;;4988885;28;20046;-71
2023/08/02 11:13:19;;;;;;;5.50;1.30;;;26.40;60.90;;;;;;4997298;28;20041;-72
2023/08/02 11:15:45;;;;;;;1.45;1.02;;;26.40;61.50;;;;;;5002225;28;20019;-72
2023/08/02 11:18:11;;;;;;;3.20;1.23;;;26.40;61.70;;;;;;4993582;28;20114;-72
2023/08/02 11:20:38;;;;;;;4.35;1.30;;;26.40;61.80;;;;;;4997901;28;20022;-72
2023/08/02 11:23:24;;;;;;;3.03;0.95;;;26.40;61.10;;;;;;5004249;28;20037;-72
2023/08/02 11:26:13;;;;;;;2.03;1.20;;;26.30;61.30;;;;;;5007564;28;20040;-72
2023/08/02 11:28:43;;;;;;;5.50;1.10;;;26.40;62.00;;;;;;5009777;28;20026;-73
2023/08/02 11:31:12;;;;;;;6.35;1.25;;;26.40;62.70;;;;;;4994944;28;20036;-73
2023/08/02 11:33:39;;;;;;;1.55;1.20;;;26.40;62.60;;;;;;5011980;28;20494;-73
2023/08/02 11:36:06;;;;;;;1.20;1.10;;;26.50;62.50;;;;;;5012666;28;20021;-73
2023/08/02 11:38:31;;;;;;;1.17;1.08;;;26.60;62.30;;;;;;4989056;28;20530;-73
2023/08/02 11:40:57;;;;;;;4.90;1.20;;;26.60;62.90;;;;;;4997293;28;20117;-73
2023/08/02 11:43:36;;;;;;;1.50;1.02;;;26.60;63.30;;;;;;4992655;28;20076;-73
2023/08/02 11:46:21;;;;;;;1.42;1.10;;;26.60;62.60;;;;;;4990682;28;20427;-73
2023/08/02 11:48:48;;;;;;;3.65;1.10;;;26.70;62.90;;;;;;4990750;28;20054;-73
2023/08/02 11:51:16;;;;;;;1.70;1.10;;;26.70;62.60;;;;;;4992620;28;20088;-73
2023/08/02 11:53:59;;;;;;;1.38;1.23;;;26.70;62.60;;;;;;4992152;28;20041;-72
2023/08/02 11:56:26;;;;;;;1.95;1.20;;;26.70;62.50;;;;;;4991046;28;20026;-77
2023/08/02 11:58:53;;;;;;;2.78;1.02;;;26.70;61.80;;;;;;4992080;28;20412;-74
2023/08/02 12:01:20;;;;;;;1.33;1.13;;;26.70;62.80;;;;;;4990107;28;20070;-75
2023/08/02 12:03:55;;;;;;;1.15;1.00;;;26.80;61.20;;;;;;4992063;28;20030;-74
2023/08/02 12:06:22;;;;;;;4.78;0.90;;;26.70;59.40;;;;;;4990126;28;20576;-74
2023/08/02 12:08:56;;;;;;;1.38;1.20;;;26.60;57.10;;;;;;4974514;28;20026;-79
2023/08/02 12:11:26;;;;;;;1.92;0.98;;;26.50;56.50;;;;;;4992122;28;20033;-80
2023/08/02 12:13:52;;;;;;;1.58;0.70;;;26.50;54.10;;;;;;4994159;28;20038;-79
2023/08/02 12:16:18;;;;;;;3.00;1.10;;;26.50;54.20;;;;;;4993625;28;20029;-79
2023/08/02 12:18:57;;;;;;;1.95;0.98;;;26.50;53.10;;;;;;4995583;28;20081;-79
2023/08/02 12:21:24;;;;;;;3.75;1.17;;;26.40;52.40;;;;;;4994267;28;20022;-80
2023/08/02 12:23:51;;;;;;;3.63;0.90;;;26.40;52.60;;;;;;4995701;28;20026;-79
2023/08/02 12:26:30;;;;;;;1.63;0.98;;;26.40;52.50;;;;;;4996015;28;20026;-80
2023/08/02 12:28:56;;;;;;;1.90;0.90;;;26.30;52.30;;;;;;4996300;28;20062;-80
2023/08/02 12:31:21;;;;;;;1.20;0.80;;;26.30;52.90;;;;;;4996525;28;20050;-81
2023/08/02 12:33:48;;;;;;;1.80;1.00;;;26.30;53.20;;;;;;4996110;28;20382;-79
2023/08/02 12:36:26;;;;;;;2.10;1.00;;;26.30;52.70;;;;;;4996030;28;20034;-79
2023/08/02 12:38:52;;;;;;;3.45;1.15;;;26.30;53.30;;;;;;4978124;28;20066;-80
2023/08/02 12:41:18;;;;;;;1.45;0.85;;;26.40;53.10;;;;;;4995951;28;20033;-80
2023/08/02 12:43:44;;;;;;;1.48;0.90;;;26.40;53.10;;;;;;4995626;28;20109;-79
2023/08/02 12:46:09;;;;;;;1.35;1.23;;;26.40;53.20;;;;;;4996297;28;20455;-80
2023/08/02 12:48:35;;;;;;;1.35;0.80;;;26.40;52.90;;;;;;4996395;28;20026;-80
2023/08/02 12:51:00;;;;;;;0.95;0.80;;;26.50;53.30;;;;;;4995900;28;20413;-80